createdAt,value
2023-02-11T00:01:33.752Z,1.40
2023-02-11T00:04:02.021Z,1.40
2023-02-11T00:06:30.469Z,1.70
2023-02-11T00:08:57.772Z,1.40
2023-02-11T00:11:26.697Z,1.40
2023-02-11T00:13:53.789Z,3.60
2023-02-11T00:16:21.517Z,1.40
2023-02-11T00:18:50.409Z,1.50
2023-02-11T00:21:20.133Z,1.30
2023-02-11T00:23:47.940Z,1.40
2023-02-11T00:26:17.398Z,1.30
2023-02-11T00:28:45.009Z,1.30
2023-02-11T00:31:13.180Z,1.30
2023-02-11T00:33:40.740Z,1.30
2023-02-11T00:36:11.920Z,1.30
2023-02-11T00:38:39.498Z,1.40
2023-02-11T00:41:06.742Z,1.30
2023-02-11T00:43:35.409Z,1.50
2023-02-11T00:46:02.466Z,1.30
2023-02-11T00:48:29.537Z,1.40
2023-02-11T00:50:56.625Z,1.40
2023-02-11T00:53:23.771Z,1.40
2023-02-11T00:55:51.055Z,1.40
2023-02-11T00:58:18.357Z,1.50
2023-02-11T01:00:45.370Z,1.50
2023-02-11T01:03:12.413Z,1.50
2023-02-11T01:05:39.825Z,1.50
2023-02-11T01:08:07.264Z,1.50
2023-02-11T01:10:34.224Z,1.50
2023-02-11T01:13:02.150Z,1.50
2023-02-11T01:15:29.320Z,1.50
2023-02-11T01:17:56.365Z,1.60
2023-02-11T01:20:26.455Z,1.80
2023-02-11T01:22:53.502Z,1.60
2023-02-11T01:25:20.398Z,1.60
2023-02-11T01:27:47.330Z,1.70
2023-02-11T01:30:14.732Z,1.80
2023-02-11T01:35:09.043Z,1.80
2023-02-11T01:37:36.667Z,1.90
2023-02-11T01:40:07.068Z,1.90
2023-02-11T01:42:33.992Z,1.80
2023-02-11T01:45:22.156Z,2.00
2023-02-11T01:47:49.020Z,2.00
2023-02-11T01:50:16.016Z,1.40
2023-02-11T01:52:43.782Z,1.90
2023-02-11T01:55:32.608Z,2.00
2023-02-11T01:58:05.004Z,2.00
2023-02-11T02:00:37.790Z,2.00
2023-02-11T02:03:09.907Z,2.00
2023-02-11T02:06:11.031Z,2.00
2023-02-11T02:08:55.630Z,2.00
2023-02-11T02:11:23.106Z,2.00
2023-02-11T02:13:49.994Z,2.10
2023-02-11T02:16:19.861Z,2.10
2023-02-11T02:19:05.494Z,2.20
2023-02-11T02:21:44.114Z,2.20
2023-02-11T02:24:35.584Z,2.20
2023-02-11T02:27:29.579Z,2.20
2023-02-11T02:30:15.149Z,2.30
2023-02-11T02:33:22.465Z,2.30
2023-02-11T02:35:52.391Z,2.30
2023-02-11T02:38:23.355Z,1.60
2023-02-11T02:40:52.946Z,2.30
2023-02-11T02:43:21.607Z,2.40
2023-02-11T02:45:48.837Z,2.40
2023-02-11T02:48:30.880Z,2.50
2023-02-11T02:51:35.802Z,2.50
2023-02-11T02:54:26.796Z,2.50
2023-02-11T02:57:07.235Z,2.40
2023-02-11T02:59:42.897Z,2.60
2023-02-11T03:02:23.344Z,2.60
2023-02-11T03:05:16.127Z,2.50
2023-02-11T03:10:23.575Z,2.70
2023-02-11T03:12:51.880Z,2.60
2023-02-11T03:15:21.189Z,2.70
2023-02-11T03:17:53.612Z,2.70
2023-02-11T03:20:23.234Z,2.70
2023-02-11T03:23:11.216Z,5.60
2023-02-11T03:25:44.873Z,2.70
2023-02-11T03:28:33.053Z,2.70
2023-02-11T03:31:07.807Z,2.90
2023-02-11T03:34:06.417Z,2.80
2023-02-11T03:36:41.135Z,2.50
2023-02-11T03:39:11.099Z,2.50
2023-02-11T03:41:41.110Z,3.10
2023-02-11T03:44:09.333Z,2.90
2023-02-11T03:46:39.430Z,2.60
2023-02-11T03:49:14.867Z,3.30
2023-02-11T03:51:42.288Z,2.80
2023-02-11T03:54:16.592Z,1.60
2023-02-11T03:56:53.675Z,2.60
2023-02-11T03:59:20.752Z,2.50
2023-02-11T04:01:47.955Z,2.60
2023-02-11T04:04:15.064Z,2.60
2023-02-11T04:06:42.248Z,2.60
2023-02-11T04:09:10.262Z,2.50
2023-02-11T04:11:37.204Z,2.50
2023-02-11T04:14:04.301Z,2.30
2023-02-11T04:16:31.306Z,2.50
2023-02-11T04:18:58.524Z,2.40
2023-02-11T04:21:25.536Z,2.50
2023-02-11T04:23:52.418Z,3.20
2023-02-11T04:26:19.369Z,2.60
2023-02-11T04:28:46.288Z,2.80
2023-02-11T04:31:13.229Z,2.50
2023-02-11T04:33:40.188Z,2.50
2023-02-11T04:36:07.511Z,2.50
2023-02-11T04:38:34.377Z,2.50
2023-02-11T04:41:01.357Z,2.50
2023-02-11T04:43:28.256Z,2.50
2023-02-11T04:45:58.780Z,2.50
2023-02-11T04:48:26.199Z,2.30
2023-02-11T04:50:53.103Z,2.50
2023-02-11T04:53:20.054Z,2.60
2023-02-11T04:55:51.141Z,2.60
2023-02-11T04:58:19.705Z,2.60
2023-02-11T05:00:46.983Z,2.60
2023-02-11T05:03:14.457Z,2.70
2023-02-11T05:05:42.685Z,2.70
2023-02-11T05:08:11.275Z,2.70
2023-02-11T05:10:38.754Z,2.80
2023-02-11T05:13:05.950Z,3.10
2023-02-11T05:15:32.984Z,2.90
2023-02-11T05:17:59.910Z,2.80
2023-02-11T05:20:26.795Z,2.60
2023-02-11T05:22:53.755Z,2.80
2023-02-11T05:25:20.844Z,2.50
2023-02-11T05:27:47.729Z,2.90
2023-02-11T05:30:14.792Z,3.00
2023-02-11T05:32:41.931Z,3.10
2023-02-11T05:35:09.534Z,2.90
2023-02-11T05:37:36.520Z,2.90
2023-02-11T05:40:04.037Z,2.90
2023-02-11T05:42:30.919Z,3.10
2023-02-11T05:44:57.981Z,3.10
2023-02-11T05:47:24.936Z,2.90
2023-02-11T05:49:53.587Z,3.10
2023-02-11T05:52:22.152Z,3.00
2023-02-11T05:54:49.112Z,3.30
2023-02-11T05:57:17.194Z,3.20
2023-02-11T05:59:44.472Z,2.90
2023-02-11T06:02:11.464Z,3.20
2023-02-11T06:04:38.416Z,3.10
2023-02-11T06:07:05.427Z,3.30
2023-02-11T06:09:32.315Z,3.70
2023-02-11T06:16:53.820Z,3.40
2023-02-11T06:19:20.735Z,4.30
2023-02-11T06:24:16.280Z,4.20
2023-02-11T06:26:43.254Z,3.50
2023-02-11T06:29:10.233Z,3.70
2023-02-11T06:31:38.963Z,3.60
2023-02-11T06:34:06.272Z,3.50
2023-02-11T06:36:33.268Z,3.80
2023-02-11T06:39:00.171Z,3.90
2023-02-11T06:41:27.108Z,3.60
2023-02-11T06:43:54.189Z,3.70
2023-02-11T06:46:21.211Z,3.70
2023-02-11T06:48:48.148Z,3.70
2023-02-11T06:51:15.602Z,3.80
2023-02-11T06:53:45.172Z,3.80
2023-02-11T06:56:18.242Z,3.90
2023-02-11T06:58:45.857Z,3.90
2023-02-11T07:01:16.094Z,3.90
2023-02-11T07:03:44.541Z,4.00
2023-02-11T07:06:16.609Z,4.00
2023-02-11T07:08:45.958Z,4.00
2023-02-11T07:11:24.311Z,4.10
2023-02-11T07:13:52.460Z,4.10
2023-02-11T07:16:20.833Z,4.10
2023-02-11T07:18:48.820Z,4.20
2023-02-11T07:21:19.156Z,4.20
2023-02-11T07:23:47.018Z,4.20
2023-02-11T07:26:16.102Z,4.20
2023-02-11T07:28:43.138Z,4.30
2023-02-11T07:31:13.416Z,4.30
2023-02-11T07:33:41.007Z,4.40
2023-02-11T07:36:10.026Z,4.40
2023-02-11T07:38:37.567Z,4.40
2023-02-11T07:41:07.934Z,4.50
2023-02-11T07:43:35.505Z,4.50
2023-02-11T07:46:09.900Z,4.50
2023-02-11T07:48:36.880Z,4.60
2023-02-11T07:51:14.741Z,4.80
2023-02-11T07:53:41.739Z,4.80
2023-02-11T07:56:10.344Z,4.90
2023-02-11T07:58:42.248Z,4.90
2023-02-11T08:01:15.792Z,4.90
2023-02-11T08:03:43.278Z,4.90
2023-02-11T08:06:13.262Z,4.90
2023-02-11T08:08:40.931Z,5.00
2023-02-11T08:11:18.162Z,5.10
2023-02-11T08:13:45.549Z,5.10
2023-02-11T08:16:33.202Z,5.20
2023-02-11T08:19:02.691Z,5.20
2023-02-11T08:21:32.340Z,5.30
2023-02-11T08:23:59.315Z,5.40
2023-02-11T08:26:30.305Z,5.40
2023-02-11T08:29:00.857Z,5.40
2023-02-11T08:31:31.171Z,5.70
2023-02-11T08:33:58.317Z,5.40
2023-02-11T08:36:29.304Z,5.70
2023-02-11T08:39:12.144Z,5.60
2023-02-11T08:41:44.902Z,6.00
2023-02-11T08:44:14.388Z,5.70
2023-02-11T08:46:41.273Z,5.70
2023-02-11T08:49:08.245Z,5.80
2023-02-11T08:51:35.211Z,5.80
2023-02-11T08:54:02.156Z,5.80
2023-02-11T08:56:31.506Z,5.90
2023-02-11T08:58:58.500Z,5.90
2023-02-11T09:01:29.388Z,5.90
2023-02-11T09:03:57.231Z,5.90
2023-02-11T09:06:26.553Z,5.90
2023-02-11T09:08:55.397Z,5.90
2023-02-11T09:11:27.372Z,5.90
2023-02-11T09:13:54.662Z,5.90
2023-02-11T09:16:27.364Z,5.90
2023-02-11T09:18:56.420Z,5.90
2023-02-11T09:21:23.389Z,5.80
2023-02-11T09:23:50.576Z,5.90
2023-02-11T09:26:20.676Z,5.90
2023-02-11T09:28:48.690Z,5.90
2023-02-11T09:31:18.051Z,5.90
2023-02-11T09:33:49.684Z,5.90
2023-02-11T09:36:22.605Z,5.90
2023-02-11T09:38:49.931Z,6.00
2023-02-11T09:41:25.592Z,6.00
2023-02-11T09:43:56.315Z,6.00
2023-02-11T09:46:25.872Z,6.10
2023-02-11T09:48:55.739Z,6.10
2023-02-11T09:51:44.387Z,6.10
2023-02-11T09:54:27.275Z,6.10
2023-02-11T09:56:54.182Z,6.10
2023-02-11T09:59:21.704Z,6.10
2023-02-11T10:01:55.333Z,5.90
2023-02-11T10:04:50.434Z,5.80
2023-02-11T10:07:42.124Z,5.80
2023-02-11T10:11:07.018Z,5.70
2023-02-11T10:13:42.738Z,5.60
2023-02-11T10:16:31.908Z,5.60
2023-02-11T10:19:36.016Z,5.50
2023-02-11T10:22:33.574Z,5.40
2023-02-11T10:25:00.951Z,5.40
2023-02-11T10:27:35.891Z,5.20
2023-02-11T10:30:07.523Z,5.10
2023-02-11T10:32:47.065Z,4.90
2023-02-11T10:35:18.873Z,4.90
2023-02-11T10:37:45.852Z,4.80
2023-02-11T10:40:32.097Z,4.70
2023-02-11T10:43:03.929Z,4.60
2023-02-11T10:45:46.323Z,4.50
2023-02-11T10:48:43.087Z,4.50
2023-02-11T10:51:14.627Z,4.40
2023-02-11T10:53:41.948Z,4.30
2023-02-11T10:56:12.689Z,4.20
2023-02-11T10:58:42.553Z,4.20
2023-02-11T11:01:23.489Z,4.10
2023-02-11T11:03:54.072Z,4.00
2023-02-11T11:06:37.124Z,4.00
2023-02-11T11:09:04.741Z,3.90
2023-02-11T11:11:31.723Z,3.80
2023-02-11T11:14:03.816Z,3.90
2023-02-11T11:16:38.004Z,4.90
2023-02-11T11:19:07.663Z,5.90
2023-02-11T11:21:40.908Z,6.80
2023-02-11T11:24:16.004Z,8.20
2023-02-11T11:26:46.754Z,9.30
2023-02-11T11:29:30.607Z,8.90
2023-02-11T11:32:01.499Z,7.10
2023-02-11T11:34:42.078Z,5.90
2023-02-11T11:37:22.326Z,4.90
2023-02-11T11:40:11.237Z,4.40
2023-02-11T11:42:39.970Z,3.90
2023-02-11T11:45:30.293Z,3.70
2023-02-11T11:48:21.155Z,3.50
2023-02-11T11:50:53.512Z,3.40
2023-02-11T11:53:26.319Z,3.30
2023-02-11T11:56:10.857Z,3.20
2023-02-11T11:58:38.141Z,3.10
2023-02-11T12:01:23.275Z,3.10
2023-02-11T12:04:11.749Z,3.10
2023-02-11T12:07:02.513Z,3.10
2023-02-11T12:09:32.318Z,3.20
2023-02-11T12:12:10.189Z,3.10
2023-02-11T12:14:40.017Z,3.00
2023-02-11T12:17:37.642Z,2.80
2023-02-11T12:20:23.860Z,2.80
2023-02-11T12:23:12.351Z,2.70
2023-02-11T12:25:39.190Z,2.60
2023-02-11T12:28:37.559Z,2.60
2023-02-11T12:31:16.834Z,2.50
2023-02-11T12:34:21.369Z,2.50
2023-02-11T12:37:02.556Z,2.40
2023-02-11T12:39:50.316Z,2.30
2023-02-11T12:43:03.699Z,2.40
2023-02-11T12:46:07.711Z,2.30
2023-02-11T12:48:59.289Z,2.40
2023-02-11T12:52:01.478Z,2.30
2023-02-11T12:54:44.046Z,2.30
2023-02-11T12:57:18.205Z,2.30
2023-02-11T13:00:00.476Z,2.30
2023-02-11T13:02:27.403Z,2.30
2023-02-11T13:04:57.501Z,2.30
2023-02-11T13:07:45.003Z,2.30
2023-02-11T13:10:15.686Z,2.30
2023-02-11T13:13:05.624Z,2.30
2023-02-11T13:15:33.823Z,2.30
2023-02-11T13:18:30.897Z,2.20
2023-02-11T13:20:57.707Z,2.20
2023-02-11T13:23:36.597Z,2.20
2023-02-11T13:26:19.609Z,2.20
2023-02-11T13:29:20.551Z,2.20
2023-02-11T13:32:06.510Z,2.20
2023-02-11T13:34:42.369Z,2.00
2023-02-11T13:37:26.759Z,2.00
2023-02-11T13:40:19.832Z,1.90
2023-02-11T13:42:56.059Z,1.90
2023-02-11T13:45:41.126Z,2.00
2023-02-11T13:48:38.079Z,1.90
2023-02-11T13:51:15.056Z,2.00
2023-02-11T13:53:53.288Z,1.90
2023-02-11T13:56:42.815Z,1.90
2023-02-11T13:59:27.938Z,1.90
2023-02-11T14:02:19.579Z,1.80
2023-02-11T14:05:19.981Z,1.70
2023-02-11T14:08:28.578Z,1.70
2023-02-11T14:11:12.458Z,1.60
2023-02-11T14:13:48.679Z,1.70
2023-02-11T14:16:31.603Z,1.60
2023-02-11T14:19:06.457Z,1.60
2023-02-11T14:21:39.559Z,1.60
2023-02-11T14:24:07.155Z,1.60
2023-02-11T14:27:04.487Z,1.60
2023-02-11T14:29:55.499Z,1.60
2023-02-11T14:32:34.146Z,1.60
2023-02-11T14:35:16.049Z,1.50
2023-02-11T14:38:03.193Z,1.50
2023-02-11T14:40:56.328Z,1.50
2023-02-11T14:43:29.164Z,1.60
2023-02-11T14:45:58.118Z,1.60
2023-02-11T14:48:35.205Z,1.50
2023-02-11T14:51:12.697Z,1.60
2023-02-11T14:53:45.273Z,1.50
2023-02-11T14:56:21.847Z,1.50
2023-02-11T14:58:51.944Z,1.50
2023-02-11T15:01:35.540Z,1.60
2023-02-11T15:04:04.590Z,1.60
2023-02-11T15:06:36.780Z,1.60
2023-02-11T15:09:12.706Z,1.60
2023-02-11T15:11:41.818Z,1.60
2023-02-11T15:14:22.368Z,1.60
2023-02-11T15:16:50.879Z,1.60
2023-02-11T15:19:26.829Z,1.60
2023-02-11T15:21:54.792Z,1.60
2023-02-11T15:24:24.420Z,1.60
2023-02-11T15:27:15.672Z,1.60
2023-02-11T15:29:46.145Z,1.60
2023-02-11T15:32:17.431Z,1.60
2023-02-11T15:34:45.591Z,1.50
2023-02-11T15:37:17.137Z,1.50
2023-02-11T15:39:44.062Z,1.50
2023-02-11T15:42:24.679Z,1.50
2023-02-11T15:45:14.484Z,1.50
2023-02-11T15:47:48.711Z,1.40
2023-02-11T15:50:21.875Z,1.40
2023-02-11T15:52:50.059Z,1.40
2023-02-11T15:55:18.259Z,1.30
2023-02-11T15:58:05.157Z,1.40
2023-02-11T16:00:38.397Z,1.30
2023-02-11T16:03:05.377Z,1.30
2023-02-11T16:05:41.296Z,1.30
2023-02-11T16:08:49.312Z,1.20
2023-02-11T16:11:25.512Z,1.20
2023-02-11T16:13:53.716Z,1.20
2023-02-11T16:16:51.166Z,1.20
2023-02-11T16:19:25.734Z,1.10
2023-02-11T16:21:55.067Z,1.10
2023-02-11T16:24:28.237Z,1.10
2023-02-11T16:26:58.896Z,1.10
2023-02-11T16:29:31.860Z,1.10
2023-02-11T16:32:17.973Z,1.10
2023-02-11T16:34:45.182Z,1.00
2023-02-11T16:37:12.320Z,1.00
2023-02-11T16:39:39.258Z,0.90
2023-02-11T16:42:08.967Z,0.90
2023-02-11T16:44:35.915Z,0.80
2023-02-11T16:47:06.947Z,0.80
2023-02-11T16:49:40.724Z,0.70
2023-02-11T16:52:12.858Z,0.70
2023-02-11T16:54:39.759Z,0.70
2023-02-11T16:57:16.252Z,0.70
2023-02-11T16:59:43.549Z,0.60
2023-02-11T17:02:18.286Z,0.60
2023-02-11T17:04:45.867Z,0.60
2023-02-11T17:07:13.139Z,0.60
2023-02-11T17:09:41.567Z,0.60
2023-02-11T17:12:08.489Z,0.60
2023-02-11T17:14:35.385Z,0.50
2023-02-11T17:17:02.321Z,0.50
2023-02-11T17:19:29.243Z,0.50
2023-02-11T17:21:56.335Z,0.50
2023-02-11T17:24:23.708Z,0.50
2023-02-11T17:26:51.134Z,0.50
2023-02-11T17:29:20.698Z,0.50
2023-02-11T17:31:47.921Z,0.40
2023-02-11T17:34:15.039Z,0.50
2023-02-11T17:36:41.927Z,0.40
2023-02-11T17:39:08.921Z,0.40
2023-02-11T17:41:37.996Z,0.40
2023-02-11T17:44:06.026Z,0.50
2023-02-11T17:46:34.892Z,0.50
2023-02-11T17:49:02.755Z,0.50
2023-02-11T17:51:35.740Z,0.40
2023-02-11T17:54:07.533Z,0.40
2023-02-11T17:56:36.480Z,0.40
2023-02-11T17:59:05.213Z,0.40
2023-02-11T18:01:34.331Z,0.40
2023-02-11T18:04:01.794Z,0.40
2023-02-11T18:06:29.263Z,0.40
2023-02-11T18:08:59.742Z,0.40
2023-02-11T18:11:28.090Z,0.40
2023-02-11T18:13:55.493Z,0.40
2023-02-11T18:16:25.174Z,0.40
2023-02-11T18:18:52.136Z,0.40
2023-02-11T18:21:21.383Z,0.50
2023-02-11T18:23:49.198Z,0.50
2023-02-11T18:26:18.167Z,0.60
2023-02-11T18:28:46.054Z,0.60
2023-02-11T18:31:14.162Z,0.60
2023-02-11T18:33:42.047Z,0.70
2023-02-11T18:36:14.339Z,0.70
2023-02-11T18:38:44.260Z,0.70
2023-02-11T18:41:12.097Z,0.70
2023-02-11T18:43:43.112Z,0.70
2023-02-11T18:46:12.770Z,0.70
2023-02-11T18:48:40.527Z,0.60
2023-02-11T18:51:16.245Z,0.60
2023-02-11T18:53:43.469Z,0.60
2023-02-11T18:56:14.099Z,0.70
2023-02-11T18:58:41.125Z,0.60
2023-02-11T19:01:14.089Z,0.60
2023-02-11T19:03:40.984Z,0.60
2023-02-11T19:06:13.104Z,0.60
2023-02-11T19:08:39.944Z,0.60
2023-02-11T19:11:06.885Z,0.60
2023-02-11T19:13:33.779Z,0.60
2023-02-11T19:16:00.629Z,0.60
2023-02-11T19:18:27.540Z,0.60
2023-02-11T19:20:54.413Z,0.60
2023-02-11T19:23:21.494Z,0.60
2023-02-11T19:25:48.902Z,0.60
2023-02-11T19:28:16.026Z,0.60
2023-02-11T19:30:43.171Z,0.50
2023-02-11T19:33:10.679Z,0.50
2023-02-11T19:35:37.572Z,0.50
2023-02-11T19:38:05.530Z,0.50
2023-02-11T19:40:32.846Z,0.50
2023-02-11T19:42:59.964Z,0.40
2023-02-11T19:45:27.122Z,0.40
2023-02-11T19:47:57.661Z,0.50
2023-02-11T19:50:25.142Z,0.40
2023-02-11T19:52:52.037Z,0.40
2023-02-11T19:55:18.993Z,0.40
2023-02-11T19:57:46.525Z,0.40
2023-02-11T20:00:13.962Z,0.40
2023-02-11T20:02:41.198Z,0.40
2023-02-11T20:05:08.410Z,0.40
2023-02-11T20:07:35.574Z,0.30
2023-02-11T20:10:02.776Z,0.40
2023-02-11T20:12:29.739Z,0.30
2023-02-11T20:14:56.665Z,0.30
2023-02-11T20:17:23.586Z,0.30
2023-02-11T20:19:50.583Z,0.30
2023-02-11T20:22:17.608Z,0.30
2023-02-11T20:24:44.671Z,0.30
2023-02-11T20:27:12.322Z,0.30
2023-02-11T20:29:39.935Z,0.30
2023-02-11T20:32:07.709Z,0.30
2023-02-11T20:34:34.747Z,0.40
2023-02-11T20:37:02.696Z,0.40
2023-02-11T20:39:29.928Z,0.40
2023-02-11T20:41:57.630Z,0.50
2023-02-11T20:44:24.920Z,0.50
2023-02-11T20:46:54.156Z,0.40
2023-02-11T20:49:23.851Z,0.40
2023-02-11T20:51:52.564Z,0.40
2023-02-11T20:54:21.047Z,0.40
2023-02-11T20:56:51.284Z,0.40
2023-02-11T20:59:19.363Z,0.40
2023-02-11T21:01:48.704Z,0.30
2023-02-11T21:04:21.475Z,0.40
2023-02-11T21:06:52.240Z,0.40
2023-02-11T21:09:22.999Z,0.30
2023-02-11T21:11:54.294Z,0.40
2023-02-11T21:14:24.075Z,0.40
2023-02-11T21:16:51.445Z,0.40
2023-02-11T21:19:19.073Z,0.50
2023-02-11T21:21:46.070Z,0.60
2023-02-11T21:24:13.006Z,0.60
2023-02-11T21:26:39.987Z,0.70
2023-02-11T21:29:08.086Z,0.70
2023-02-11T21:31:36.609Z,0.70
2023-02-11T21:34:04.547Z,0.70
2023-02-11T21:36:31.665Z,0.70
2023-02-11T21:38:58.817Z,0.70
2023-02-11T21:41:27.429Z,0.60
2023-02-11T21:43:54.586Z,0.60
2023-02-11T21:46:22.327Z,0.50
2023-02-11T21:48:49.853Z,0.60
2023-02-11T21:51:19.659Z,0.50
2023-02-11T21:53:47.050Z,0.50
2023-02-11T21:56:16.618Z,0.50
2023-02-11T21:58:44.371Z,0.40
2023-02-11T22:01:19.384Z,0.40
2023-02-11T22:03:47.547Z,0.40
2023-02-11T22:06:18.495Z,0.40
2023-02-11T22:08:45.245Z,0.40
2023-02-11T22:11:12.996Z,0.50
2023-02-11T22:13:40.784Z,0.50
2023-02-11T22:16:14.041Z,0.50
2023-02-11T22:18:41.836Z,0.50
2023-02-11T22:21:11.478Z,0.50
2023-02-11T22:23:39.420Z,0.50
2023-02-11T22:26:09.507Z,0.60
2023-02-11T22:28:38.972Z,0.50
2023-02-11T22:31:06.506Z,0.50
2023-02-11T22:33:33.934Z,0.60
2023-02-11T22:36:02.188Z,0.60
2023-02-11T22:38:31.292Z,0.60
2023-02-11T22:40:59.404Z,0.60
2023-02-11T22:43:27.796Z,0.60
2023-02-11T22:45:56.630Z,0.60
2023-02-11T22:48:23.822Z,0.60
2023-02-11T22:50:50.747Z,0.60
2023-02-11T22:53:17.647Z,0.70
2023-02-11T22:55:44.573Z,0.70
2023-02-11T22:58:11.872Z,0.70
2023-02-11T23:00:41.195Z,0.60
2023-02-11T23:03:09.161Z,0.70
2023-02-11T23:05:41.357Z,0.60
2023-02-11T23:08:10.093Z,0.60
2023-02-11T23:10:39.147Z,0.70
2023-02-11T23:13:07.152Z,0.60
2023-02-11T23:15:34.165Z,0.60
2023-02-11T23:18:01.111Z,0.70
2023-02-11T23:20:28.056Z,0.70
2023-02-11T23:22:55.111Z,0.70
2023-02-11T23:25:21.991Z,0.60
2023-02-11T23:27:49.071Z,0.60
2023-02-11T23:30:16.094Z,0.60
2023-02-11T23:32:42.966Z,0.70
2023-02-11T23:35:09.936Z,0.60
2023-02-11T23:37:36.911Z,0.50
2023-02-11T23:40:04.242Z,0.60
2023-02-11T23:42:31.248Z,0.60
2023-02-11T23:44:58.090Z,0.60
2023-02-11T23:47:25.026Z,0.50
2023-02-11T23:49:51.909Z,0.50
2023-02-11T23:52:19.312Z,0.50
2023-02-11T23:54:48.359Z,0.40
2023-02-11T23:57:15.922Z,0.40
2023-02-11T23:59:43.265Z,0.40
